createdAt,value
2019-02-20T00:00:32.552Z,51.10
2019-02-20T00:03:01.223Z,51.60
2019-02-20T00:05:29.073Z,51.80
2019-02-20T00:07:56.927Z,52.10
2019-02-20T00:10:24.935Z,51.60
2019-02-20T00:12:52.844Z,51.40
2019-02-20T00:15:21.018Z,51.60
2019-02-20T00:17:48.881Z,51.60
2019-02-20T00:20:16.778Z,52.00
2019-02-20T00:22:44.637Z,52.80
2019-02-20T00:25:12.492Z,52.70
2019-02-20T00:27:40.330Z,51.10
2019-02-20T00:30:08.224Z,50.90
2019-02-20T00:32:36.059Z,51.10
2019-02-20T00:35:04.091Z,51.60
2019-02-20T00:37:31.913Z,51.80
2019-02-20T00:39:59.902Z,51.00
2019-02-20T00:42:27.714Z,50.80
2019-02-20T00:45:30.474Z,51.50
2019-02-20T00:48:23.858Z,52.10
2019-02-20T00:50:56.243Z,52.00
2019-02-20T00:53:31.495Z,52.10
2019-02-20T00:55:59.373Z,52.20
2019-02-20T00:58:27.198Z,52.30
2019-02-20T01:00:55.042Z,51.80
2019-02-20T01:03:22.873Z,51.20
2019-02-20T01:05:50.719Z,50.80
2019-02-20T01:08:18.681Z,50.80
2019-02-20T01:10:46.607Z,50.80
2019-02-20T01:13:14.572Z,51.10
2019-02-20T01:15:42.414Z,51.60
2019-02-20T01:18:10.290Z,51.70
2019-02-20T01:20:38.143Z,51.40
2019-02-20T01:23:06.020Z,51.40
2019-02-20T01:25:33.861Z,50.70
2019-02-20T01:28:01.819Z,50.70
2019-02-20T01:30:29.629Z,50.50
2019-02-20T01:32:57.459Z,51.20
2019-02-20T01:35:25.299Z,51.60
2019-02-20T01:37:53.251Z,52.00
2019-02-20T01:40:21.068Z,51.80
2019-02-20T01:42:48.930Z,52.80
2019-02-20T01:45:16.757Z,53.10
2019-02-20T01:47:44.567Z,53.10
2019-02-20T01:50:12.529Z,52.60
2019-02-20T01:52:40.623Z,53.10
2019-02-20T01:55:08.548Z,53.30
2019-02-20T01:57:36.391Z,53.00
2019-02-20T02:00:05.803Z,53.10
2019-02-20T02:02:33.654Z,52.90
2019-02-20T02:05:01.627Z,52.90
2019-02-20T02:07:29.466Z,52.80
2019-02-20T02:09:57.319Z,53.00
2019-02-20T02:12:25.188Z,53.30
2019-02-20T02:14:53.076Z,53.50
2019-02-20T02:17:20.882Z,53.10
2019-02-20T02:19:48.725Z,53.70
2019-02-20T02:22:16.557Z,53.10
2019-02-20T02:24:44.354Z,53.20
2019-02-20T02:27:12.538Z,53.70
2019-02-20T02:29:40.357Z,52.80
2019-02-20T02:32:08.197Z,51.80
2019-02-20T02:34:36.022Z,52.10
2019-02-20T02:37:03.981Z,52.20
2019-02-20T02:39:31.793Z,52.00
2019-02-20T02:41:59.646Z,52.70
2019-02-20T02:44:27.489Z,53.80
2019-02-20T02:46:55.315Z,54.30
2019-02-20T02:49:23.206Z,54.70
2019-02-20T02:51:51.012Z,55.00
2019-02-20T02:54:18.822Z,55.00
2019-02-20T02:56:46.674Z,54.90
2019-02-20T02:59:14.798Z,54.50
2019-02-20T03:01:42.636Z,54.90
2019-02-20T03:04:10.467Z,54.50
2019-02-20T03:06:38.336Z,54.40
2019-02-20T03:09:06.518Z,54.70
2019-02-20T03:11:34.623Z,54.20
2019-02-20T03:14:02.484Z,54.00
2019-02-20T03:16:30.426Z,53.70
2019-02-20T03:18:58.259Z,52.80
2019-02-20T03:21:26.104Z,53.00
2019-02-20T03:23:53.933Z,52.90
2019-02-20T03:26:22.075Z,52.80
2019-02-20T03:28:49.917Z,52.30
2019-02-20T03:31:17.738Z,52.70
2019-02-20T03:33:45.613Z,53.40
2019-02-20T03:36:13.453Z,54.20
2019-02-20T03:38:41.323Z,55.20
2019-02-20T03:41:09.137Z,56.10
2019-02-20T03:43:36.967Z,56.60
2019-02-20T03:46:04.830Z,56.40
2019-02-20T03:48:32.723Z,56.60
2019-02-20T03:51:00.526Z,56.90
2019-02-20T03:53:28.476Z,56.40
2019-02-20T03:55:57.056Z,55.80
2019-02-20T03:58:24.856Z,55.50
2019-02-20T04:00:52.699Z,55.90
2019-02-20T04:03:20.888Z,55.80
2019-02-20T04:05:48.742Z,54.80
2019-02-20T04:08:16.585Z,53.90
2019-02-20T04:10:44.730Z,54.30
2019-02-20T04:13:12.594Z,54.50
2019-02-20T04:15:40.452Z,53.60
2019-02-20T04:18:08.299Z,55.40
2019-02-20T04:20:36.208Z,55.00
2019-02-20T04:23:04.008Z,55.60
2019-02-20T04:25:31.825Z,55.60
2019-02-20T04:27:59.662Z,55.20
2019-02-20T04:30:27.512Z,55.50
2019-02-20T04:32:55.317Z,56.00
2019-02-20T04:35:23.225Z,56.50
2019-02-20T04:37:51.086Z,55.80
2019-02-20T04:40:18.946Z,55.80
2019-02-20T04:42:46.822Z,56.40
2019-02-20T04:45:14.745Z,56.60
2019-02-20T04:47:42.617Z,56.60
2019-02-20T04:50:10.432Z,56.20
2019-02-20T04:52:38.324Z,56.50
2019-02-20T04:55:06.235Z,56.50
2019-02-20T04:57:34.089Z,56.70
2019-02-20T05:00:01.940Z,56.90
2019-02-20T05:02:29.870Z,57.00
2019-02-20T05:04:57.827Z,57.20
2019-02-20T05:07:25.660Z,56.70
2019-02-20T05:09:53.510Z,56.40
2019-02-20T05:12:21.309Z,56.40
2019-02-20T05:14:49.477Z,56.40
2019-02-20T05:17:17.299Z,56.50
2019-02-20T05:19:45.129Z,56.40
2019-02-20T05:22:12.999Z,56.40
2019-02-20T05:24:41.164Z,55.70
2019-02-20T05:27:09.049Z,55.40
2019-02-20T05:29:36.911Z,55.40
2019-02-20T05:32:04.769Z,55.90
2019-02-20T05:34:32.614Z,55.00
2019-02-20T05:37:00.433Z,55.50
2019-02-20T05:39:28.400Z,56.10
2019-02-20T05:41:56.278Z,56.40
2019-02-20T05:44:24.133Z,56.80
2019-02-20T05:46:51.975Z,55.90
2019-02-20T05:49:19.786Z,55.90
2019-02-20T05:51:47.633Z,56.40
2019-02-20T05:54:15.465Z,55.30
2019-02-20T05:56:43.318Z,54.70
2019-02-20T05:59:11.193Z,54.70
2019-02-20T06:01:39.017Z,54.40
2019-02-20T06:04:09.606Z,54.30
2019-02-20T06:06:37.453Z,54.40
2019-02-20T06:09:05.648Z,54.50
2019-02-20T06:11:33.465Z,54.20
2019-02-20T06:14:01.345Z,54.40
2019-02-20T06:16:29.185Z,54.30
2019-02-20T06:18:57.023Z,54.40
2019-02-20T06:21:24.867Z,54.70
2019-02-20T06:23:52.702Z,55.20
2019-02-20T06:26:20.613Z,54.70
2019-02-20T06:28:48.449Z,54.70
2019-02-20T06:31:16.587Z,54.70
2019-02-20T06:33:44.494Z,54.80
2019-02-20T06:36:12.358Z,55.30
2019-02-20T06:38:40.197Z,55.30
2019-02-20T06:41:08.034Z,55.40
2019-02-20T06:43:35.927Z,55.20
2019-02-20T06:46:03.794Z,54.40
2019-02-20T06:48:31.617Z,54.20
2019-02-20T06:50:59.545Z,54.20
2019-02-20T06:53:27.397Z,54.30
2019-02-20T06:55:55.227Z,54.30
2019-02-20T06:58:23.053Z,54.40
2019-02-20T07:00:50.914Z,54.40
2019-02-20T07:03:18.773Z,54.20
2019-02-20T07:06:30.839Z,53.80
2019-02-20T07:09:31.663Z,53.90
2019-02-20T07:12:44.065Z,55.00
2019-02-20T07:16:22.133Z,54.50
2019-02-20T07:19:35.213Z,54.70
2019-02-20T07:23:19.183Z,54.10
2019-02-20T07:26:38.349Z,53.60
2019-02-20T07:29:44.260Z,53.90
2019-02-20T07:32:15.955Z,53.80
2019-02-20T07:34:43.801Z,53.80
2019-02-20T07:37:11.807Z,54.50
2019-02-20T07:39:39.641Z,53.90
2019-02-20T07:42:07.461Z,53.40
2019-02-20T07:44:35.339Z,53.30
2019-02-20T07:47:03.182Z,53.40
2019-02-20T07:49:31.023Z,53.10
2019-02-20T07:51:58.868Z,53.00
2019-02-20T07:54:26.731Z,52.50
2019-02-20T07:56:54.593Z,51.40
2019-02-20T07:59:22.801Z,52.40
2019-02-20T08:01:51.234Z,53.00
2019-02-20T08:04:19.045Z,52.90
2019-02-20T08:06:46.948Z,52.60
2019-02-20T08:09:14.848Z,52.70
2019-02-20T08:11:42.761Z,53.00
2019-02-20T08:14:10.614Z,51.90
2019-02-20T08:16:38.441Z,51.60
2019-02-20T08:19:06.295Z,51.00
2019-02-20T08:21:34.137Z,51.70
2019-02-20T08:24:02.081Z,51.50
2019-02-20T08:26:29.924Z,51.70
2019-02-20T08:28:57.753Z,51.60
2019-02-20T08:31:25.650Z,51.90
2019-02-20T08:33:53.512Z,51.90
2019-02-20T08:36:21.629Z,52.00
2019-02-20T08:38:49.448Z,51.50
2019-02-20T08:41:17.266Z,51.50
2019-02-20T08:43:45.112Z,51.60
2019-02-20T08:46:12.948Z,51.10
2019-02-20T08:48:41.067Z,50.90
2019-02-20T08:51:08.891Z,50.60
2019-02-20T08:53:36.794Z,49.90
2019-02-20T08:56:04.727Z,49.40
2019-02-20T08:58:32.558Z,48.70
2019-02-20T09:01:00.418Z,48.30
2019-02-20T09:03:28.263Z,47.90
2019-02-20T09:05:56.124Z,46.90
2019-02-20T09:08:23.973Z,46.50
2019-02-20T09:10:51.783Z,46.70
2019-02-20T09:13:19.623Z,46.40
2019-02-20T09:15:47.437Z,46.60
2019-02-20T09:18:15.292Z,46.30
2019-02-20T09:20:43.112Z,46.90
2019-02-20T09:23:10.963Z,46.50
2019-02-20T09:25:41.598Z,46.60
2019-02-20T09:28:09.018Z,46.50
2019-02-20T09:30:36.856Z,46.40
2019-02-20T09:33:04.730Z,46.40
2019-02-20T09:35:32.741Z,45.70
2019-02-20T09:38:00.604Z,45.10
2019-02-20T09:40:28.478Z,44.30
2019-02-20T09:42:56.318Z,44.10
2019-02-20T09:45:24.137Z,44.40
2019-02-20T09:47:51.989Z,43.70
2019-02-20T09:50:19.827Z,42.80
2019-02-20T09:52:52.337Z,41.70
2019-02-20T09:55:17.428Z,42.40
2019-02-20T09:57:45.318Z,41.40
2019-02-20T10:00:14.173Z,41.60
2019-02-20T10:02:42.018Z,41.70
2019-02-20T10:05:10.016Z,42.00
2019-02-20T10:07:37.952Z,41.70
2019-02-20T10:10:06.659Z,40.50
2019-02-20T10:12:34.542Z,39.60
2019-02-20T10:15:02.721Z,39.10
2019-02-20T10:17:30.571Z,39.50
2019-02-20T10:19:58.415Z,35.50
2019-02-20T10:22:26.210Z,33.70
2019-02-20T10:24:54.090Z,32.50
2019-02-20T10:27:21.928Z,30.30
2019-02-20T10:29:49.798Z,29.20
2019-02-20T10:32:17.680Z,28.60
2019-02-20T10:34:45.542Z,28.00
2019-02-20T10:37:13.389Z,28.50
2019-02-20T10:39:41.277Z,28.60
2019-02-20T10:42:09.162Z,29.00
2019-02-20T10:44:37.016Z,26.80
2019-02-20T10:47:05.128Z,24.80
2019-02-20T10:49:33.000Z,23.90
2019-02-20T10:52:01.352Z,24.90
2019-02-20T10:54:29.171Z,26.80
2019-02-20T10:56:57.037Z,27.70
2019-02-20T10:59:24.883Z,28.30
2019-02-20T11:01:52.759Z,28.40
2019-02-20T11:04:20.608Z,28.60
2019-02-20T11:06:48.458Z,28.10
2019-02-20T11:09:16.427Z,28.30
2019-02-20T11:11:44.281Z,27.70
2019-02-20T11:14:12.118Z,27.90
2019-02-20T11:16:40.581Z,28.60
2019-02-20T11:19:08.463Z,27.00
2019-02-20T11:21:36.314Z,27.10
2019-02-20T11:24:04.169Z,27.70
2019-02-20T11:26:32.098Z,26.10
2019-02-20T11:28:59.982Z,26.10
2019-02-20T11:31:27.833Z,25.40
2019-02-20T11:33:55.671Z,24.30
2019-02-20T11:36:23.540Z,24.80
2019-02-20T11:38:51.361Z,23.10
2019-02-20T11:41:19.201Z,23.60
2019-02-20T11:43:47.065Z,22.80
2019-02-20T11:46:14.895Z,22.70
2019-02-20T11:48:42.713Z,21.80
2019-02-20T11:51:10.823Z,21.70
2019-02-20T11:53:38.758Z,20.90
2019-02-20T11:56:06.634Z,20.90
2019-02-20T11:58:34.455Z,21.20
2019-02-20T12:01:02.913Z,20.90
2019-02-20T12:03:30.761Z,21.60
2019-02-20T12:05:58.624Z,22.10
2019-02-20T12:08:26.543Z,23.00
2019-02-20T12:10:54.951Z,21.60
2019-02-20T12:13:22.883Z,22.10
2019-02-20T12:15:50.710Z,22.10
2019-02-20T12:18:18.637Z,21.60
2019-02-20T12:20:46.456Z,21.90
2019-02-20T12:23:14.344Z,22.00
2019-02-20T12:25:42.182Z,22.30
2019-02-20T12:28:10.152Z,22.70
2019-02-20T12:30:38.179Z,22.90
2019-02-20T12:33:06.142Z,23.10
2019-02-20T12:35:34.095Z,22.30
2019-02-20T12:38:02.538Z,22.50
2019-02-20T12:40:30.708Z,21.30
2019-02-20T12:42:58.572Z,20.70
2019-02-20T12:45:26.528Z,22.20
2019-02-20T12:47:54.437Z,21.80
2019-02-20T12:50:22.304Z,21.80
2019-02-20T12:52:50.216Z,21.80
2019-02-20T12:55:18.077Z,20.50
2019-02-20T12:57:45.910Z,20.50
2019-02-20T13:00:14.907Z,20.50
2019-02-20T13:02:42.783Z,20.40
2019-02-20T13:05:10.985Z,20.40
2019-02-20T13:07:38.809Z,19.60
2019-02-20T13:10:07.149Z,19.90
2019-02-20T13:12:35.061Z,20.30
2019-02-20T13:15:02.951Z,19.70
2019-02-20T13:17:30.831Z,20.50
2019-02-20T13:19:58.703Z,20.00
2019-02-20T13:22:26.554Z,20.10
2019-02-20T13:24:54.454Z,20.30
2019-02-20T13:27:23.134Z,20.10
2019-02-20T13:29:51.085Z,20.70
2019-02-20T13:32:18.952Z,21.10
2019-02-20T13:34:46.842Z,21.10
2019-02-20T13:37:14.750Z,21.30
2019-02-20T13:39:42.626Z,21.00
2019-02-20T13:42:10.508Z,21.00
2019-02-20T13:44:38.635Z,21.30
2019-02-20T13:47:06.513Z,21.30
2019-02-20T13:49:34.343Z,21.10
2019-02-20T13:52:02.219Z,20.90
2019-02-20T13:54:30.136Z,21.20
2019-02-20T13:57:01.766Z,21.10
2019-02-20T13:59:28.158Z,21.30
2019-02-20T14:01:56.214Z,21.20
2019-02-20T14:04:24.052Z,21.10
2019-02-20T14:06:52.157Z,21.00
2019-02-20T14:09:20.035Z,21.30
2019-02-20T14:11:47.844Z,20.90
2019-02-20T14:14:16.688Z,20.70
2019-02-20T14:16:44.761Z,20.80
2019-02-20T14:19:12.893Z,21.00
2019-02-20T14:21:40.860Z,20.70
2019-02-20T14:24:08.699Z,20.30
2019-02-20T14:26:36.637Z,20.50
2019-02-20T14:29:04.501Z,20.90
2019-02-20T14:31:32.403Z,21.00
2019-02-20T14:34:00.311Z,21.10
2019-02-20T14:36:28.641Z,21.10
2019-02-20T14:38:56.545Z,20.90
2019-02-20T14:41:24.427Z,21.90
2019-02-20T14:43:52.304Z,21.80
2019-02-20T14:46:20.155Z,21.80
2019-02-20T14:48:48.083Z,22.00
2019-02-20T14:51:15.999Z,21.40
2019-02-20T14:53:44.252Z,21.30
2019-02-20T14:56:12.667Z,21.50
2019-02-20T14:58:40.502Z,21.80
2019-02-20T15:01:08.383Z,21.90
2019-02-20T15:03:36.253Z,21.50
2019-02-20T15:06:04.105Z,21.50
2019-02-20T15:08:31.963Z,21.60
2019-02-20T15:11:00.241Z,21.80
2019-02-20T15:13:28.070Z,21.90
2019-02-20T15:15:55.986Z,22.00
2019-02-20T15:18:23.880Z,22.10
2019-02-20T15:20:51.822Z,22.50
2019-02-20T15:23:19.679Z,22.10
2019-02-20T15:25:47.561Z,22.70
2019-02-20T15:28:15.447Z,22.20
2019-02-20T15:30:43.727Z,22.40
2019-02-20T15:33:11.598Z,22.00
2019-02-20T15:35:39.509Z,22.00
2019-02-20T15:38:07.341Z,22.20
2019-02-20T15:40:35.438Z,22.50
2019-02-20T15:43:03.371Z,22.70
2019-02-20T15:45:31.193Z,22.80
2019-02-20T15:47:59.031Z,23.00
2019-02-20T15:50:26.938Z,23.60
2019-02-20T15:52:54.832Z,23.60
2019-02-20T15:55:22.729Z,23.50
2019-02-20T15:57:50.615Z,23.40
2019-02-20T16:00:19.865Z,24.10
2019-02-20T16:02:47.732Z,24.10
2019-02-20T16:05:15.953Z,24.50
2019-02-20T16:07:43.862Z,24.70
2019-02-20T16:10:11.675Z,24.90
2019-02-20T16:12:39.501Z,25.10
2019-02-20T16:15:08.060Z,25.40
2019-02-20T16:17:35.954Z,25.70
2019-02-20T16:20:05.598Z,26.30
2019-02-20T16:22:33.659Z,26.10
2019-02-20T16:25:01.545Z,26.30
2019-02-20T16:27:29.487Z,26.70
2019-02-20T16:29:57.327Z,26.80
2019-02-20T16:32:25.189Z,27.30
2019-02-20T16:34:53.070Z,27.50
2019-02-20T16:37:21.755Z,27.50
2019-02-20T16:39:49.965Z,27.60
2019-02-20T16:42:17.862Z,27.80
2019-02-20T16:44:45.815Z,27.70
2019-02-20T16:47:13.677Z,28.40
2019-02-20T16:49:41.857Z,27.70
2019-02-20T16:52:09.815Z,28.10
2019-02-20T16:54:37.729Z,28.80
2019-02-20T16:57:06.013Z,29.00
2019-02-20T16:59:33.862Z,29.20
2019-02-20T17:02:01.850Z,28.80
2019-02-20T17:04:29.764Z,28.70
2019-02-20T17:06:57.675Z,28.90
2019-02-20T17:09:25.512Z,29.40
2019-02-20T17:11:53.448Z,29.90
2019-02-20T17:14:21.757Z,30.00
2019-02-20T17:16:49.542Z,30.10
2019-02-20T17:19:17.439Z,30.30
2019-02-20T17:21:46.036Z,29.90
2019-02-20T17:24:13.933Z,30.00
2019-02-20T17:26:42.092Z,29.70
2019-02-20T17:29:09.978Z,29.70
2019-02-20T17:31:38.394Z,30.20
2019-02-20T17:34:06.292Z,30.40
2019-02-20T17:36:34.205Z,30.10
2019-02-20T17:39:02.257Z,30.70
2019-02-20T17:41:30.180Z,30.60
2019-02-20T17:43:58.032Z,30.60
2019-02-20T17:46:26.061Z,30.70
2019-02-20T17:48:54.319Z,31.30
2019-02-20T17:51:22.213Z,31.50
2019-02-20T17:53:50.078Z,31.80
2019-02-20T17:56:17.927Z,32.90
2019-02-20T17:58:45.856Z,32.80
2019-02-20T18:01:16.429Z,33.60
2019-02-20T18:03:44.382Z,34.20
2019-02-20T18:06:12.384Z,34.60
2019-02-20T18:08:40.297Z,34.90
2019-02-20T18:11:08.392Z,36.40
2019-02-20T18:13:36.284Z,35.60
2019-02-20T18:16:04.431Z,35.50
2019-02-20T18:18:32.280Z,35.70
2019-02-20T18:21:00.260Z,35.60
2019-02-20T18:23:28.096Z,36.00
2019-02-20T18:25:56.054Z,37.00
2019-02-20T18:28:24.758Z,37.30
2019-02-20T18:30:52.886Z,38.20
2019-02-20T18:33:20.768Z,38.00
2019-02-20T18:35:48.650Z,37.50
2019-02-20T18:38:16.523Z,36.60
2019-02-20T18:40:44.414Z,36.00
2019-02-20T18:43:12.526Z,36.70
2019-02-20T18:45:40.433Z,37.10
2019-02-20T18:48:08.373Z,37.50
2019-02-20T18:50:36.262Z,37.60
2019-02-20T18:53:04.241Z,37.60
2019-02-20T18:55:32.098Z,38.60
2019-02-20T18:58:00.013Z,38.40
2019-02-20T19:00:28.095Z,38.20
2019-02-20T19:02:56.037Z,38.10
2019-02-20T19:05:24.003Z,38.90
2019-02-20T19:07:51.859Z,39.70
2019-02-20T19:10:26.427Z,38.90
2019-02-20T19:13:49.281Z,39.00
2019-02-20T19:17:33.808Z,38.90
2019-02-20T19:20:45.481Z,38.90
2019-02-20T19:24:20.591Z,39.50
2019-02-20T19:27:42.159Z,39.80
2019-02-20T19:31:19.372Z,39.80
2019-02-20T19:34:40.808Z,39.20
2019-02-20T19:38:20.706Z,40.10
2019-02-20T19:41:40.460Z,41.00
2019-02-20T19:45:21.445Z,41.30
2019-02-20T19:48:55.631Z,41.70
2019-02-20T19:52:36.287Z,42.00
2019-02-20T19:56:08.357Z,41.80
2019-02-20T19:59:48.043Z,42.10
2019-02-20T20:03:22.393Z,42.30
2019-02-20T20:07:08.680Z,42.70
2019-02-20T20:10:47.290Z,43.10
2019-02-20T20:13:55.474Z,43.50
2019-02-20T20:17:20.600Z,43.20
2019-02-20T20:20:19.647Z,43.50
2019-02-20T20:23:40.001Z,43.50
2019-02-20T20:27:20.023Z,43.60
2019-02-20T20:30:36.621Z,43.40
2019-02-20T20:33:42.243Z,44.00
2019-02-20T20:37:30.054Z,43.80
2019-02-20T20:40:39.814Z,43.60
2019-02-20T20:43:56.356Z,44.10
2019-02-20T20:47:27.235Z,44.30
2019-02-20T20:51:05.645Z,44.50
2019-02-20T20:54:36.251Z,45.50
2019-02-20T20:57:50.403Z,45.80
2019-02-20T21:01:11.700Z,45.60
2019-02-20T21:03:56.908Z,46.10
2019-02-20T21:07:05.343Z,45.70
2019-02-20T21:10:51.466Z,45.40
2019-02-20T21:14:32.876Z,45.20
2019-02-20T21:17:45.101Z,45.60
2019-02-20T21:21:00.845Z,45.90
2019-02-20T21:24:23.604Z,46.10
2019-02-20T21:27:56.822Z,46.40
2019-02-20T21:31:21.794Z,45.80
2019-02-20T21:34:36.582Z,44.70
2019-02-20T21:37:57.299Z,45.00
2019-02-20T21:41:25.937Z,45.10
2019-02-20T21:45:12.241Z,45.80
2019-02-20T21:48:22.561Z,46.10
2019-02-20T21:52:02.758Z,46.20
2019-02-20T21:55:15.823Z,47.00
2019-02-20T21:58:50.259Z,46.90
2019-02-20T22:02:22.338Z,47.00
2019-02-20T22:05:40.344Z,46.90
2019-02-20T22:09:36.508Z,47.10
2019-02-20T22:13:10.008Z,47.00
2019-02-20T22:16:17.320Z,46.90
2019-02-20T22:19:32.281Z,47.10
2019-02-20T22:22:55.722Z,47.20
2019-02-20T22:26:17.868Z,47.30
2019-02-20T22:29:35.789Z,47.00
2019-02-20T22:33:07.376Z,47.00
2019-02-20T22:36:44.758Z,47.10
2019-02-20T22:39:55.588Z,46.60
2019-02-20T22:43:05.409Z,46.70
2019-02-20T22:46:13.084Z,47.20
2019-02-20T22:49:39.903Z,47.00
2019-02-20T22:52:30.439Z,47.70
2019-02-20T22:55:54.108Z,47.50
2019-02-20T22:58:56.331Z,48.30
2019-02-20T23:02:15.102Z,49.20
2019-02-20T23:05:29.110Z,48.60
2019-02-20T23:08:37.508Z,48.40
2019-02-20T23:11:38.041Z,48.30
2019-02-20T23:14:24.449Z,48.10
2019-02-20T23:16:52.340Z,48.00
2019-02-20T23:19:20.264Z,47.40
2019-02-20T23:21:48.122Z,47.50
2019-02-20T23:24:16.081Z,48.80
2019-02-20T23:26:44.018Z,47.40
2019-02-20T23:29:11.857Z,47.40
2019-02-20T23:31:39.752Z,47.90
2019-02-20T23:34:07.559Z,47.30
2019-02-20T23:36:35.482Z,47.10
2019-02-20T23:39:05.231Z,47.00
2019-02-20T23:41:33.074Z,47.10
2019-02-20T23:44:00.912Z,47.00
2019-02-20T23:46:28.734Z,47.60
2019-02-20T23:48:56.583Z,48.00
2019-02-20T23:51:24.497Z,48.30
2019-02-20T23:53:52.399Z,48.40
2019-02-20T23:56:20.247Z,47.60
2019-02-20T23:58:48.058Z,48.10
